This is the latest recevied weather packets stored in our database for station/object EA1GGY-1. If no packets are shown the sender has not sent any weather packets the latest 10 day(s).
| Time | Temp. | Humidity | Pressure | Rain* | Wind** | Luminosity | Snow |
|---|---|---|---|---|---|---|---|
| 1777921790 | 8.33° C | 76% | 1009.1 hPa | - | - | - | - |
| 1777921189 | 8.33° C | 75% | 1009.1 hPa | - | - | - | - |
| 1777920588 | 8.33° C | 76% | 1009.1 hPa | - | - | - | - |
| 1777919987 | 8.89° C | 75% | 1009.1 hPa | - | - | - | - |
| 1777919386 | 8.89° C | 72% | 1008.8 hPa | - | - | - | - |
| 1777918785 | 9.44° C | 73% | 1008.8 hPa | - | - | - | - |
| 1777918185 | 10° C | 70% | 1008.8 hPa | - | - | - | - |
| 1777917584 | 9.44° C | 70% | 1008.7 hPa | - | - | - | - |
| 1777916984 | 10° C | 69% | 1008.7 hPa | - | - | - | - |
| 1777916382 | 9.44° C | 70% | 1008.8 hPa | - | - | - | - |
| 1777915782 | 9.44° C | 70% | 1008.7 hPa | - | - | - | - |
| 1777915181 | 9.44° C | 70% | 1008.8 hPa | - | - | - | - |
| 1777914581 | 9.44° C | 72% | 1008.9 hPa | - | - | - | - |
| 1777913979 | 8.89° C | 72% | 1008.8 hPa | - | - | - | - |
| 1777913378 | 9.44° C | 74% | 1008.9 hPa | - | - | - | - |
| 1777912778 | 10° C | 73% | 1008.8 hPa | - | - | - | - |
| 1777912176 | 10° C | 70% | 1008.4 hPa | - | - | - | - |
| 1777911575 | 11.67° C | 57% | 1007.8 hPa | - | - | - | - |
| 1777910975 | 11.67° C | 56% | 1007.8 hPa | - | - | - | - |
| 1777910373 | 12.22° C | 55% | 1007.8 hPa | - | - | - | - |
| 1777909773 | 12.22° C | 56% | 1007.9 hPa | - | - | - | - |
| 1777909172 | 12.22° C | 54% | 1007.9 hPa | - | - | - | - |
| 1777908571 | 12.22° C | 55% | 1008 hPa | - | - | - | - |
| 1777907970 | 12.22° C | 53% | 1008 hPa | - | - | - | - |
| 1777907369 | 12.22° C | 52% | 1007.9 hPa | - | - | - | - |
* Rain since midnight (hover to see other rain measurements)
** Current wind speed in m/s (hover to see current wind gust speed)